• Join FlightAware (Why Join?)
  • Login
  • US Flag 
11:30PM EDT


 

Airport Tracker/Info


-or-


 

Live Flight TrackerFlight Track Log ✈ SWA303 ✈ 31-Aug-2014 ✈ KAUS - KDAL

Flight Track Log - Related Links

Times and Time Zones

All times are in EDT time to prevent confusion due to time zone crossing. See the SWA303 flight status page for this flight to view local times or setup timezone preferences in your user account.

Time Position Orientation Groundspeed Altitude Reporting Facility
EDT Latitude Longitude Course Direction KTS MPH feet Rate Location/Type
06:22PM 30.1556 -97.6028 119° Southeast 211 243 3,400  Level Houston Center
06:23PM 30.1614 -97.5756 76° East 232 267 4,000 2,460 Climbing Houston Center
06:23PM 30.1756 -97.5256 72° East 287 330 5,700 3,300 Climbing Houston Center
06:24PM 30.1883 -97.4753 74° East 265 305 7,400 3,060 Climbing Houston Center
06:25PM 30.2608 -97.4378 24° Northeast 289 333 10,600 2,340 Climbing Houston Center
06:26PM 30.3497 -97.3986 21° North 339 390 12,300 2,340 Climbing Houston Center
06:27PM 30.4444 -97.3539 22° Northeast 363 418 15,400 2,700 Climbing Houston Center
06:28PM 30.5375 -97.3058 24° Northeast 365 420 17,900 2,160 Climbing Houston Center
06:29PM 30.6136 -97.2158 45° Northeast 385 443 19,800 1,860 Climbing Houston Center
06:30PM 30.6919 -97.1250 45° Northeast 399 459 21,800 1,020 Climbing Houston Center
06:31PM 30.7894 -97.0125 45° Northeast 413 475 22,000 60 Climbing Houston Center
06:32PM 30.8694 -96.9178 45° Northeast 415 478 22,000  Level Houston Center
06:33PM 30.9508 -96.8261 44° Northeast 414 476 22,000  Level Houston Center
06:34PM 31.0278 -96.7347 45° Northeast 400 460 22,000  Level Houston Center
06:35PM 31.1069 -96.6439 44° Northeast 400 460 22,000  Level Houston Center
06:36PM 31.1831 -96.5528 46° Northeast 398 458 22,000  Level Houston Center
06:37PM 31.2600 -96.4642 45° Northeast 393 452 22,000  Level Houston Center
06:38PM 31.3497 -96.3547 46° Northeast 392 451 22,000  Level Houston Center
06:39PM 31.4256 -96.2628 46° Northeast 391 450 22,000  Level Houston Center
06:40PM 31.5042 -96.1722 44° Northeast 394 453 22,000  Level Fort Worth Center
06:41PM 31.6114 -96.1853 354° North 394 453 22,000  Level Fort Worth Center
06:42PM 31.7197 -96.2094 349° North 396 456 22,000 -60 Level Fort Worth Center
06:43PM 31.8275 -96.2325 350° North 394 453 21,900 -1,200 Descending Fort Worth Center
06:44PM 31.9331 -96.2578 349° North 393 452 19,600 -2,580 Descending Fort Worth Center
06:45PM 32.0556 -96.2872 348° North 380 437 16,700 -2,580 Descending Fort Worth Center
06:46PM 32.1550 -96.3089 350° North 370 426 14,400 -2,400 Descending Fort Worth Center
06:47PM 32.2619 -96.3292 351° North 364 419 11,900 -2,040 Descending Fort Worth Center
06:48PM 32.3536 -96.3517 348° North 341 392 10,300 -1,380 Descending Fort Worth Center
06:49PM 32.4356 -96.3692 350° North 300 345 9,100 -1,620 Descending Fort Worth Center
06:50PM 32.5142 -96.4158 333° Northwest 294 338 7,100 -1,920 Descending Fort Worth Center
06:51PM 32.5869 -96.4592 333° Northwest 293 337 5,200 -1,020 Descending Fort Worth Center
06:52PM 32.6564 -96.5017 333° Northwest 284 327 5,100 -60 Descending Fort Worth Center
06:53PM 32.7258 -96.5581 326° Northwest 281 323 5,100 -540 Level Fort Worth Center
06:55PM 32.7806 -96.6253 314° West 281 323 4,000 -840 Descending Fort Worth Center
06:56PM 32.8328 -96.6906 314° West 274 315 3,400 -480 Descending Fort Worth Center
06:57PM 32.8836 -96.7553 313° West 271 312 3,100 -240 Descending Fort Worth Center
06:58PM 32.9361 -96.8208 314° West 251 289 3,000 -540 Descending Fort Worth Center
06:59PM 32.9508 -96.8822 286° West 211 243 2,100 -660 Descending Fort Worth Center
07:00PM 32.9089 -96.9078 207° Southwest 171 197 1,700 -540 Descending Fort Worth Center
07:01PM 32.8778 -96.8819 145° Southeast 139 160 1,000 -600 Descending Fort Worth Center
07:02PM 32.8544 -96.8542 135° Southeast 131 151 500 -540 Descending Fort Worth Center